VIV4348 MMMY-MMPR
Flight info
| Callsign | VIV4348 |
|---|---|
| Flight time | 1h 30m |
| Altitude | 36000 |
| Route | URTOB1A URTOB DCT OTEKA UT1 KEDMA KEDMA1A |
| Aircraft | A320/M-SDE3FGHIRWY/LB1 |
Departure
| Time | 2026-05-07 14:51 |
|---|---|
| Airport | Monterrey International Airport (MMMY) |
Arrival
| Time | 2026-05-07 16:21 |
|---|---|
| Airport | Puerto Vallarta International Airport (MMPR) |
| Time | Latitude | Longitude | Altitude | Speed | Heading |
|---|---|---|---|---|---|
| 2026-05-07 14:45 | 25.77915 | -100.11210 | 1275 ft | 0 kts | 301° |
| 2026-05-07 14:47 | 25.77917 | -100.11214 | 1275 ft | 4 kts | 301° |
| 2026-05-07 14:47 | 25.77951 | -100.11276 | 1276 ft | 11 kts | 301° |
| 2026-05-07 14:47 | 25.77977 | -100.11324 | 1277 ft | 11 kts | 301° |
| 2026-05-07 14:47 | 25.78017 | -100.11397 | 1279 ft | 11 kts | 302° |
| 2026-05-07 14:48 | 25.78073 | -100.11497 | 1280 ft | 12 kts | 301° |
| 2026-05-07 14:48 | 25.78116 | -100.11576 | 1282 ft | 12 kts | 302° |
| 2026-05-07 14:48 | 25.78161 | -100.11657 | 1283 ft | 13 kts | 301° |
| 2026-05-07 14:48 | 25.78206 | -100.11741 | 1287 ft | 12 kts | 301° |
| 2026-05-07 14:49 | 25.78234 | -100.11785 | 1287 ft | 10 kts | 311° |
| 2026-05-07 14:49 | 25.78297 | -100.11792 | 1287 ft | 10 kts | 24° |
| 2026-05-07 14:49 | 25.78355 | -100.11750 | 1288 ft | 10 kts | 32° |
| 2026-05-07 14:49 | 25.78395 | -100.11686 | 1288 ft | 12 kts | 96° |
| 2026-05-07 14:50 | 25.78357 | -100.11603 | 1287 ft | 14 kts | 121° |
| 2026-05-07 14:50 | 25.78080 | -100.11101 | 1275 ft | 101 kts | 121° |
| 2026-05-07 14:50 | 25.77624 | -100.10275 | 1264 ft | 149 kts | 121° |
| 2026-05-07 14:50 | 25.77228 | -100.09562 | 1362 ft | 168 kts | 120° |
| 2026-05-07 14:51 | 25.76614 | -100.08460 | 1989 ft | 170 kts | 120° |
| 2026-05-07 14:51 | 25.76020 | -100.07296 | 2507 ft | 179 kts | 119° |
| 2026-05-07 14:51 | 25.75388 | -100.06010 | 2770 ft | 200 kts | 118° |
| 2026-05-07 14:51 | 25.74674 | -100.04582 | 3047 ft | 225 kts | 119° |
| 2026-05-07 14:52 | 25.73870 | -100.02988 | 3425 ft | 249 kts | 118° |
| 2026-05-07 14:52 | 25.72995 | -100.01259 | 4026 ft | 262 kts | 118° |
| 2026-05-07 14:52 | 25.72096 | -99.99480 | 4880 ft | 266 kts | 118° |
| 2026-05-07 14:52 | 25.71184 | -99.97681 | 5733 ft | 270 kts | 118° |
| 2026-05-07 14:53 | 25.70184 | -99.95934 | 6504 ft | 275 kts | 132° |
| 2026-05-07 14:53 | 25.68604 | -99.94740 | 7228 ft | 281 kts | 161° |
| 2026-05-07 14:53 | 25.66656 | -99.94536 | 7954 ft | 287 kts | 191° |
| 2026-05-07 14:53 | 25.64842 | -99.95431 | 8679 ft | 289 kts | 220° |
| 2026-05-07 14:54 | 25.63435 | -99.97025 | 9453 ft | 290 kts | 230° |
| 2026-05-07 14:54 | 25.62202 | -99.98804 | 10201 ft | 292 kts | 236° |
| 2026-05-07 14:54 | 25.61106 | -100.00788 | 10462 ft | 313 kts | 243° |
| 2026-05-07 14:54 | 25.60174 | -100.03047 | 10700 ft | 330 kts | 249° |
| 2026-05-07 14:55 | 25.59485 | -100.05501 | 11230 ft | 336 kts | 256° |
| 2026-05-07 14:55 | 25.59072 | -100.08052 | 11883 ft | 338 kts | 263° |
| 2026-05-07 14:55 | 25.58944 | -100.10654 | 12559 ft | 340 kts | 269° |
| 2026-05-07 14:55 | 25.59117 | -100.13272 | 13277 ft | 342 kts | 276° |
| 2026-05-07 14:56 | 25.59592 | -100.15822 | 13914 ft | 344 kts | 283° |
| 2026-05-07 14:56 | 25.60263 | -100.18375 | 14452 ft | 346 kts | 279° |
| 2026-05-07 14:56 | 25.60432 | -100.21022 | 14958 ft | 345 kts | 263° |
| 2026-05-07 14:56 | 25.59936 | -100.23606 | 15525 ft | 344 kts | 249° |
| 2026-05-07 14:57 | 25.58822 | -100.25943 | 16120 ft | 345 kts | 234° |
| 2026-05-07 14:57 | 25.57166 | -100.27867 | 16713 ft | 347 kts | 220° |
| 2026-05-07 14:57 | 25.55261 | -100.29524 | 17302 ft | 350 kts | 220° |
| 2026-05-07 14:57 | 25.53365 | -100.31171 | 17862 ft | 352 kts | 220° |
| 2026-05-07 14:58 | 25.51432 | -100.32849 | 18411 ft | 354 kts | 220° |
| 2026-05-07 14:58 | 25.49491 | -100.34531 | 18933 ft | 355 kts | 220° |
| 2026-05-07 14:58 | 25.47542 | -100.36223 | 19500 ft | 357 kts | 220° |
| 2026-05-07 14:58 | 25.45582 | -100.37929 | 20019 ft | 359 kts | 220° |
| 2026-05-07 14:59 | 25.43614 | -100.39641 | 20559 ft | 361 kts | 220° |
| 2026-05-07 14:59 | 25.41638 | -100.41363 | 21032 ft | 362 kts | 220° |
| 2026-05-07 14:59 | 25.39661 | -100.43110 | 21514 ft | 366 kts | 223° |
| 2026-05-07 14:59 | 25.37916 | -100.45162 | 22002 ft | 367 kts | 233° |
| 2026-05-07 15:00 | 25.36591 | -100.47540 | 22420 ft | 370 kts | 243° |
| 2026-05-07 15:00 | 25.35439 | -100.50094 | 22922 ft | 373 kts | 243° |
| 2026-05-07 15:00 | 25.34279 | -100.52664 | 23376 ft | 375 kts | 243° |
| 2026-05-07 15:00 | 25.33106 | -100.55254 | 23805 ft | 377 kts | 242° |
| 2026-05-07 15:01 | 25.31926 | -100.57849 | 24151 ft | 379 kts | 242° |
| 2026-05-07 15:01 | 25.30735 | -100.60454 | 24546 ft | 381 kts | 242° |
| 2026-05-07 15:01 | 25.29537 | -100.63072 | 24924 ft | 382 kts | 242° |
| 2026-05-07 15:01 | 25.28337 | -100.65699 | 25278 ft | 384 kts | 242° |
| 2026-05-07 15:02 | 25.27144 | -100.68308 | 25615 ft | 386 kts | 242° |
| 2026-05-07 15:02 | 25.25930 | -100.70962 | 25986 ft | 388 kts | 242° |
| 2026-05-07 15:02 | 25.24713 | -100.73628 | 26325 ft | 390 kts | 242° |
| 2026-05-07 15:02 | 25.23489 | -100.76310 | 26650 ft | 392 kts | 242° |
| 2026-05-07 15:03 | 25.22257 | -100.79003 | 26990 ft | 394 kts | 242° |
| 2026-05-07 15:03 | 25.21020 | -100.81707 | 27329 ft | 396 kts | 242° |
| 2026-05-07 15:03 | 25.19774 | -100.84426 | 27644 ft | 398 kts | 242° |
| 2026-05-07 15:03 | 25.18524 | -100.87155 | 27978 ft | 399 kts | 242° |
| 2026-05-07 15:04 | 25.17267 | -100.89900 | 28316 ft | 401 kts | 242° |
| 2026-05-07 15:04 | 25.16005 | -100.92657 | 28676 ft | 403 kts | 242° |
| 2026-05-07 15:04 | 25.14754 | -100.95386 | 29022 ft | 405 kts | 241° |
| 2026-05-07 15:04 | 25.13478 | -100.98165 | 29359 ft | 407 kts | 241° |
| 2026-05-07 15:05 | 25.12192 | -101.00960 | 29712 ft | 409 kts | 241° |
| 2026-05-07 15:05 | 25.10902 | -101.03765 | 30055 ft | 411 kts | 241° |
| 2026-05-07 15:05 | 25.09603 | -101.06585 | 30330 ft | 413 kts | 241° |
| 2026-05-07 15:05 | 25.08300 | -101.09414 | 30630 ft | 414 kts | 241° |
| 2026-05-07 15:06 | 25.07000 | -101.12241 | 31041 ft | 413 kts | 242° |
| 2026-05-07 15:06 | 25.05704 | -101.15060 | 31454 ft | 411 kts | 242° |
| 2026-05-07 15:06 | 25.04427 | -101.17831 | 31871 ft | 410 kts | 242° |
| 2026-05-07 15:06 | 25.03135 | -101.20629 | 32290 ft | 409 kts | 242° |
| 2026-05-07 15:07 | 25.01846 | -101.23419 | 32704 ft | 408 kts | 242° |
| 2026-05-07 15:07 | 25.00558 | -101.26205 | 33102 ft | 407 kts | 242° |
| 2026-05-07 15:07 | 24.99272 | -101.28982 | 33519 ft | 406 kts | 242° |
| 2026-05-07 15:07 | 24.97991 | -101.31754 | 33954 ft | 405 kts | 242° |
| 2026-05-07 15:08 | 24.96716 | -101.34515 | 34357 ft | 404 kts | 242° |
| 2026-05-07 15:08 | 24.95444 | -101.37265 | 34722 ft | 402 kts | 242° |
| 2026-05-07 15:08 | 24.94177 | -101.40004 | 35095 ft | 400 kts | 242° |
| 2026-05-07 15:08 | 24.92930 | -101.42694 | 35461 ft | 399 kts | 242° |
| 2026-05-07 15:09 | 24.91672 | -101.45407 | 35825 ft | 397 kts | 242° |
| 2026-05-07 15:09 | 24.90415 | -101.48114 | 36013 ft | 397 kts | 242° |
| 2026-05-07 15:09 | 24.87896 | -101.53525 | 36032 ft | 397 kts | 242° |
| 2026-05-07 15:10 | 24.85368 | -101.58952 | 36051 ft | 399 kts | 242° |
| 2026-05-07 15:10 | 24.82851 | -101.64356 | 36042 ft | 399 kts | 242° |
| 2026-05-07 15:11 | 24.80318 | -101.69794 | 36040 ft | 400 kts | 242° |
| 2026-05-07 15:11 | 24.77780 | -101.75228 | 36039 ft | 399 kts | 242° |
| 2026-05-07 15:12 | 24.75237 | -101.80661 | 36043 ft | 399 kts | 242° |
| 2026-05-07 15:12 | 24.72694 | -101.86090 | 36048 ft | 400 kts | 242° |
| 2026-05-07 15:13 | 24.70166 | -101.91488 | 36049 ft | 400 kts | 242° |
| 2026-05-07 15:13 | 24.67620 | -101.96918 | 36050 ft | 400 kts | 242° |
| 2026-05-07 15:14 | 24.65077 | -102.02349 | 36052 ft | 400 kts | 242° |
| 2026-05-07 15:14 | 24.62527 | -102.07772 | 36057 ft | 399 kts | 242° |
| 2026-05-07 15:15 | 24.59996 | -102.13147 | 36060 ft | 398 kts | 242° |
| 2026-05-07 15:15 | 24.57448 | -102.18548 | 36058 ft | 398 kts | 242° |
| 2026-05-07 15:16 | 24.54904 | -102.23937 | 36055 ft | 397 kts | 242° |
| 2026-05-07 15:16 | 24.52361 | -102.29320 | 36054 ft | 397 kts | 242° |
| 2026-05-07 15:17 | 24.49833 | -102.34664 | 36035 ft | 397 kts | 242° |
| 2026-05-07 15:17 | 24.47282 | -102.40045 | 36025 ft | 398 kts | 242° |
| 2026-05-07 15:18 | 24.44727 | -102.45443 | 36039 ft | 399 kts | 242° |
| 2026-05-07 15:18 | 24.42171 | -102.50838 | 36044 ft | 398 kts | 242° |
| 2026-05-07 15:19 | 24.39632 | -102.56188 | 36045 ft | 398 kts | 242° |
| 2026-05-07 15:19 | 24.37076 | -102.61569 | 36045 ft | 397 kts | 242° |
| 2026-05-07 15:20 | 24.34517 | -102.66940 | 36041 ft | 397 kts | 242° |
| 2026-05-07 15:20 | 24.31951 | -102.72308 | 36044 ft | 397 kts | 242° |
| 2026-05-07 15:21 | 24.29405 | -102.77641 | 36061 ft | 397 kts | 242° |
| 2026-05-07 15:21 | 24.26845 | -102.83000 | 36064 ft | 397 kts | 242° |
| 2026-05-07 15:22 | 24.24287 | -102.88349 | 36062 ft | 396 kts | 242° |
| 2026-05-07 15:22 | 24.21730 | -102.93682 | 36061 ft | 395 kts | 242° |
| 2026-05-07 15:23 | 24.19196 | -102.98969 | 36069 ft | 395 kts | 242° |
| 2026-05-07 15:23 | 24.16640 | -103.04285 | 36066 ft | 394 kts | 242° |
| 2026-05-07 15:24 | 24.14085 | -103.09596 | 36067 ft | 394 kts | 242° |
| 2026-05-07 15:24 | 24.11536 | -103.14907 | 36100 ft | 394 kts | 242° |
| 2026-05-07 15:25 | 24.08999 | -103.20171 | 36088 ft | 392 kts | 241° |
| 2026-05-07 15:25 | 24.06460 | -103.25439 | 36084 ft | 391 kts | 242° |
| 2026-05-07 15:26 | 24.03213 | -103.30149 | 36084 ft | 391 kts | 223° |
| 2026-05-07 15:26 | 23.98601 | -103.33341 | 36082 ft | 394 kts | 212° |
| 2026-05-07 15:27 | 23.93818 | -103.36201 | 36082 ft | 395 kts | 212° |
| 2026-05-07 15:27 | 23.89001 | -103.39086 | 36080 ft | 395 kts | 213° |
| 2026-05-07 15:28 | 23.84190 | -103.41976 | 36072 ft | 395 kts | 212° |
| 2026-05-07 15:28 | 23.79369 | -103.44858 | 36071 ft | 395 kts | 212° |
| 2026-05-07 15:29 | 23.74575 | -103.47718 | 36058 ft | 396 kts | 212° |
| 2026-05-07 15:29 | 23.69745 | -103.50603 | 36078 ft | 396 kts | 212° |
| 2026-05-07 15:30 | 23.64917 | -103.53488 | 36092 ft | 395 kts | 212° |
| 2026-05-07 15:30 | 23.60096 | -103.56361 | 36100 ft | 395 kts | 212° |
| 2026-05-07 15:31 | 23.55304 | -103.59212 | 36093 ft | 395 kts | 212° |
| 2026-05-07 15:31 | 23.50482 | -103.62081 | 36098 ft | 395 kts | 212° |
| 2026-05-07 15:32 | 23.45664 | -103.64952 | 36071 ft | 395 kts | 212° |
| 2026-05-07 15:32 | 23.40840 | -103.67828 | 36065 ft | 396 kts | 212° |
| 2026-05-07 15:33 | 23.36001 | -103.70710 | 36072 ft | 397 kts | 212° |
| 2026-05-07 15:33 | 23.31186 | -103.73566 | 36075 ft | 397 kts | 212° |
| 2026-05-07 15:34 | 23.26334 | -103.76448 | 36084 ft | 397 kts | 212° |
| 2026-05-07 15:34 | 23.21480 | -103.79330 | 36079 ft | 397 kts | 212° |
| 2026-05-07 15:35 | 23.16621 | -103.82201 | 36082 ft | 397 kts | 212° |
| 2026-05-07 15:35 | 23.11795 | -103.85050 | 36061 ft | 398 kts | 212° |
| 2026-05-07 15:36 | 23.06932 | -103.87914 | 36063 ft | 398 kts | 212° |
| 2026-05-07 15:36 | 23.02058 | -103.90787 | 36067 ft | 399 kts | 212° |
| 2026-05-07 15:37 | 22.97181 | -103.93676 | 36059 ft | 399 kts | 212° |
| 2026-05-07 15:37 | 22.92337 | -103.96544 | 36063 ft | 400 kts | 212° |
| 2026-05-07 15:38 | 22.87454 | -103.99423 | 36066 ft | 400 kts | 212° |
| 2026-05-07 15:38 | 22.82568 | -104.02300 | 36061 ft | 400 kts | 212° |
| 2026-05-07 15:39 | 22.77677 | -104.05179 | 36036 ft | 400 kts | 212° |
| 2026-05-07 15:39 | 22.72812 | -104.08049 | 36029 ft | 401 kts | 212° |
| 2026-05-07 15:40 | 22.67901 | -104.10934 | 36033 ft | 402 kts | 212° |
| 2026-05-07 15:40 | 22.62975 | -104.13817 | 36039 ft | 403 kts | 212° |
| 2026-05-07 15:41 | 22.58044 | -104.16704 | 36038 ft | 403 kts | 212° |
| 2026-05-07 15:41 | 22.53143 | -104.19570 | 36039 ft | 403 kts | 212° |
| 2026-05-07 15:42 | 22.48212 | -104.22457 | 36041 ft | 403 kts | 212° |
| 2026-05-07 15:42 | 22.43674 | -104.25912 | 36026 ft | 398 kts | 228° |
| 2026-05-07 15:43 | 22.40528 | -104.30791 | 36022 ft | 397 kts | 239° |
| 2026-05-07 15:43 | 22.37730 | -104.35942 | 36023 ft | 398 kts | 239° |
| 2026-05-07 15:44 | 22.34935 | -104.41059 | 36024 ft | 398 kts | 239° |
| 2026-05-07 15:44 | 22.32112 | -104.46211 | 36012 ft | 398 kts | 239° |
| 2026-05-07 15:45 | 22.29289 | -104.51361 | 36011 ft | 399 kts | 239° |
| 2026-05-07 15:45 | 22.26470 | -104.56520 | 36020 ft | 399 kts | 239° |
| 2026-05-07 15:46 | 22.22253 | -104.64224 | 36011 ft | 399 kts | 239° |
| 2026-05-07 15:47 | 22.19427 | -104.69383 | 36015 ft | 400 kts | 239° |
| 2026-05-07 15:47 | 22.16600 | -104.74546 | 36007 ft | 399 kts | 239° |
| 2026-05-07 15:48 | 22.13785 | -104.79668 | 36005 ft | 400 kts | 239° |
| 2026-05-07 15:48 | 22.10943 | -104.84825 | 36000 ft | 400 kts | 239° |
| 2026-05-07 15:49 | 22.08108 | -104.89977 | 35982 ft | 400 kts | 239° |
| 2026-05-07 15:49 | 22.05266 | -104.95145 | 35967 ft | 401 kts | 239° |
| 2026-05-07 15:50 | 22.02433 | -105.00284 | 35986 ft | 402 kts | 239° |
| 2026-05-07 15:50 | 21.99578 | -105.05459 | 35976 ft | 402 kts | 239° |
| 2026-05-07 15:51 | 21.96715 | -105.10636 | 35970 ft | 402 kts | 239° |
| 2026-05-07 15:51 | 21.93850 | -105.15808 | 35973 ft | 402 kts | 239° |
| 2026-05-07 15:52 | 21.91000 | -105.20950 | 35975 ft | 402 kts | 239° |
| 2026-05-07 15:52 | 21.88134 | -105.26124 | 35970 ft | 402 kts | 239° |
| 2026-05-07 15:53 | 21.85272 | -105.31294 | 35978 ft | 402 kts | 239° |
| 2026-05-07 15:53 | 21.82407 | -105.36456 | 35975 ft | 401 kts | 239° |
| 2026-05-07 15:54 | 21.79548 | -105.41605 | 35975 ft | 401 kts | 239° |
| 2026-05-07 15:54 | 21.76706 | -105.46710 | 35973 ft | 400 kts | 239° |
| 2026-05-07 15:55 | 21.73844 | -105.51846 | 35974 ft | 400 kts | 239° |
| 2026-05-07 15:55 | 21.70984 | -105.56974 | 35952 ft | 400 kts | 239° |
| 2026-05-07 15:56 | 21.68141 | -105.62079 | 35931 ft | 401 kts | 239° |
| 2026-05-07 15:56 | 21.66746 | -105.64677 | 35788 ft | 401 kts | 240° |
| 2026-05-07 15:56 | 21.65415 | -105.67306 | 35228 ft | 401 kts | 246° |
| 2026-05-07 15:56 | 21.64730 | -105.70208 | 34707 ft | 403 kts | 264° |
| 2026-05-07 15:57 | 21.64970 | -105.73214 | 34276 ft | 409 kts | 281° |
| 2026-05-07 15:57 | 21.66114 | -105.76028 | 33829 ft | 418 kts | 298° |
| 2026-05-07 15:57 | 21.68070 | -105.78378 | 33320 ft | 429 kts | 315° |
| 2026-05-07 15:57 | 21.70669 | -105.80022 | 32813 ft | 442 kts | 333° |
| 2026-05-07 15:58 | 21.73689 | -105.80792 | 32283 ft | 454 kts | 350° |
| 2026-05-07 15:58 | 21.76817 | -105.80626 | 31918 ft | 462 kts | 8° |
| 2026-05-07 15:58 | 21.79883 | -105.79519 | 31660 ft | 467 kts | 25° |
| 2026-05-07 15:58 | 21.82558 | -105.77554 | 31205 ft | 468 kts | 43° |
| 2026-05-07 15:59 | 21.84586 | -105.74844 | 30733 ft | 464 kts | 62° |
| 2026-05-07 15:59 | 21.85816 | -105.71667 | 30280 ft | 457 kts | 79° |
| 2026-05-07 15:59 | 21.86197 | -105.68323 | 29799 ft | 446 kts | 96° |
| 2026-05-07 15:59 | 21.85751 | -105.65083 | 29361 ft | 432 kts | 112° |
| 2026-05-07 16:00 | 21.84596 | -105.62168 | 28952 ft | 417 kts | 125° |
| 2026-05-07 16:00 | 21.83176 | -105.59469 | 28561 ft | 412 kts | 125° |
| 2026-05-07 16:00 | 21.81781 | -105.56838 | 28181 ft | 409 kts | 125° |
| 2026-05-07 16:00 | 21.80373 | -105.54192 | 27805 ft | 405 kts | 125° |
| 2026-05-07 16:01 | 21.78975 | -105.51574 | 27443 ft | 402 kts | 125° |
| 2026-05-07 16:01 | 21.77590 | -105.48981 | 27079 ft | 398 kts | 125° |
| 2026-05-07 16:01 | 21.76216 | -105.46406 | 26721 ft | 395 kts | 125° |
| 2026-05-07 16:01 | 21.74857 | -105.43860 | 26375 ft | 391 kts | 125° |
| 2026-05-07 16:02 | 21.73512 | -105.41337 | 26032 ft | 387 kts | 125° |
| 2026-05-07 16:02 | 21.72196 | -105.38865 | 25679 ft | 384 kts | 125° |
| 2026-05-07 16:02 | 21.70877 | -105.36386 | 25331 ft | 381 kts | 125° |
| 2026-05-07 16:02 | 21.69571 | -105.33927 | 24991 ft | 377 kts | 125° |
| 2026-05-07 16:03 | 21.68270 | -105.31486 | 24631 ft | 375 kts | 125° |
| 2026-05-07 16:03 | 21.66978 | -105.29066 | 24267 ft | 372 kts | 125° |
| 2026-05-07 16:03 | 21.65690 | -105.26659 | 23907 ft | 370 kts | 125° |
| 2026-05-07 16:03 | 21.64410 | -105.24268 | 23531 ft | 369 kts | 125° |
| 2026-05-07 16:04 | 21.63137 | -105.21887 | 23127 ft | 366 kts | 125° |
| 2026-05-07 16:04 | 21.61872 | -105.19522 | 22755 ft | 363 kts | 125° |
| 2026-05-07 16:04 | 21.60636 | -105.17211 | 22376 ft | 360 kts | 124° |
| 2026-05-07 16:04 | 21.59396 | -105.14888 | 22004 ft | 357 kts | 124° |
| 2026-05-07 16:05 | 21.58163 | -105.12580 | 21631 ft | 354 kts | 124° |
| 2026-05-07 16:05 | 21.56940 | -105.10295 | 21258 ft | 352 kts | 124° |
| 2026-05-07 16:05 | 21.55725 | -105.08030 | 20884 ft | 349 kts | 124° |
| 2026-05-07 16:05 | 21.54516 | -105.05777 | 20529 ft | 347 kts | 124° |
| 2026-05-07 16:06 | 21.53319 | -105.03543 | 20170 ft | 344 kts | 124° |
| 2026-05-07 16:06 | 21.52128 | -105.01323 | 19799 ft | 342 kts | 124° |
| 2026-05-07 16:06 | 21.50946 | -104.99121 | 19536 ft | 339 kts | 124° |
| 2026-05-07 16:06 | 21.49771 | -104.96937 | 19181 ft | 337 kts | 124° |
| 2026-05-07 16:07 | 21.48602 | -104.94764 | 18837 ft | 335 kts | 124° |
| 2026-05-07 16:07 | 21.47439 | -104.92603 | 18491 ft | 334 kts | 124° |
| 2026-05-07 16:07 | 21.46297 | -104.90480 | 18111 ft | 332 kts | 123° |
| 2026-05-07 16:07 | 21.45114 | -104.88358 | 17745 ft | 328 kts | 130° |
| 2026-05-07 16:08 | 21.43547 | -104.86643 | 17388 ft | 319 kts | 148° |
| 2026-05-07 16:08 | 21.41616 | -104.85561 | 17059 ft | 311 kts | 165° |
| 2026-05-07 16:08 | 21.39489 | -104.85165 | 16611 ft | 314 kts | 181° |
| 2026-05-07 16:08 | 21.37331 | -104.85492 | 16166 ft | 314 kts | 197° |
| 2026-05-07 16:09 | 21.35249 | -104.86201 | 15728 ft | 314 kts | 197° |
| 2026-05-07 16:09 | 21.33192 | -104.86906 | 15291 ft | 315 kts | 197° |
| 2026-05-07 16:09 | 21.31104 | -104.87619 | 14840 ft | 315 kts | 197° |
| 2026-05-07 16:09 | 21.29014 | -104.88330 | 14392 ft | 316 kts | 197° |
| 2026-05-07 16:10 | 21.26919 | -104.89041 | 13939 ft | 316 kts | 196° |
| 2026-05-07 16:10 | 21.24822 | -104.89753 | 13451 ft | 316 kts | 197° |
| 2026-05-07 16:10 | 21.22750 | -104.90459 | 13262 ft | 307 kts | 197° |
| 2026-05-07 16:10 | 21.20757 | -104.91139 | 12864 ft | 296 kts | 197° |
| 2026-05-07 16:11 | 21.18804 | -104.91805 | 12230 ft | 295 kts | 197° |
| 2026-05-07 16:11 | 21.16865 | -104.92463 | 11844 ft | 295 kts | 197° |
| 2026-05-07 16:11 | 21.14895 | -104.93129 | 11449 ft | 296 kts | 197° |
| 2026-05-07 16:11 | 21.12932 | -104.93794 | 10966 ft | 295 kts | 198° |
| 2026-05-07 16:12 | 21.10970 | -104.94459 | 10545 ft | 295 kts | 198° |
| 2026-05-07 16:12 | 21.09030 | -104.95115 | 10077 ft | 291 kts | 198° |
| 2026-05-07 16:12 | 21.07118 | -104.95760 | 9608 ft | 286 kts | 198° |
| 2026-05-07 16:12 | 21.05206 | -104.96407 | 9192 ft | 290 kts | 198° |
| 2026-05-07 16:13 | 21.03280 | -104.97061 | 8789 ft | 291 kts | 198° |
| 2026-05-07 16:13 | 21.01361 | -104.97712 | 8568 ft | 285 kts | 198° |
| 2026-05-07 16:13 | 20.99551 | -104.98325 | 8438 ft | 267 kts | 198° |
| 2026-05-07 16:13 | 20.97817 | -104.98912 | 8146 ft | 257 kts | 198° |
| 2026-05-07 16:14 | 20.96132 | -104.99483 | 7709 ft | 253 kts | 198° |
| 2026-05-07 16:14 | 20.94458 | -105.00051 | 7213 ft | 252 kts | 198° |
| 2026-05-07 16:14 | 20.92779 | -105.00617 | 6696 ft | 253 kts | 198° |
| 2026-05-07 16:14 | 20.91099 | -105.01182 | 6290 ft | 255 kts | 198° |
| 2026-05-07 16:15 | 20.89403 | -105.01762 | 5940 ft | 255 kts | 200° |
| 2026-05-07 16:15 | 20.87861 | -105.02682 | 5569 ft | 256 kts | 220° |
| 2026-05-07 16:15 | 20.86626 | -105.04021 | 5212 ft | 257 kts | 227° |
| 2026-05-07 16:15 | 20.85419 | -105.05421 | 4895 ft | 255 kts | 227° |
| 2026-05-07 16:16 | 20.84229 | -105.06796 | 4507 ft | 248 kts | 227° |
| 2026-05-07 16:16 | 20.83074 | -105.08125 | 4155 ft | 240 kts | 227° |
| 2026-05-07 16:16 | 20.81959 | -105.09407 | 3868 ft | 232 kts | 227° |
| 2026-05-07 16:16 | 20.80875 | -105.10652 | 3556 ft | 226 kts | 227° |
| 2026-05-07 16:17 | 20.79820 | -105.11861 | 3214 ft | 219 kts | 227° |
| 2026-05-07 16:17 | 20.78799 | -105.13035 | 2913 ft | 211 kts | 227° |
| 2026-05-07 16:17 | 20.77850 | -105.14124 | 2628 ft | 194 kts | 227° |
| 2026-05-07 16:17 | 20.76962 | -105.15144 | 2357 ft | 181 kts | 227° |
| 2026-05-07 16:18 | 20.76140 | -105.16082 | 2123 ft | 165 kts | 227° |
| 2026-05-07 16:18 | 20.75397 | -105.16931 | 1925 ft | 151 kts | 228° |
| 2026-05-07 16:18 | 20.74692 | -105.17737 | 1718 ft | 146 kts | 229° |
| 2026-05-07 16:18 | 20.74003 | -105.18528 | 1518 ft | 145 kts | 228° |
| 2026-05-07 16:19 | 20.73323 | -105.19308 | 1330 ft | 143 kts | 229° |
| 2026-05-07 16:19 | 20.72656 | -105.20076 | 1135 ft | 143 kts | 228° |
| 2026-05-07 16:19 | 20.71979 | -105.20854 | 945 ft | 143 kts | 228° |
| 2026-05-07 16:19 | 20.71300 | -105.21632 | 756 ft | 143 kts | 228° |
| 2026-05-07 16:20 | 20.70619 | -105.22407 | 552 ft | 143 kts | 228° |
| 2026-05-07 16:20 | 20.69951 | -105.23184 | 337 ft | 142 kts | 229° |
| 2026-05-07 16:20 | 20.69282 | -105.23960 | 153 ft | 142 kts | 228° |
| 2026-05-07 16:20 | 20.68605 | -105.24724 | 27 ft | 137 kts | 228° |
| 2026-05-07 16:21 | 20.68065 | -105.25355 | 24 ft | 91 kts | 226° |
| 2026-05-07 16:21 | 20.67741 | -105.25726 | 20 ft | 31 kts | 226° |
| 2026-05-07 16:21 | 20.67587 | -105.25886 | 18 ft | 32 kts | 210° |
| 2026-05-07 16:21 | 20.67448 | -105.25952 | 18 ft | 14 kts | 199° |
| 2026-05-07 16:22 | 20.67356 | -105.25950 | 19 ft | 15 kts | 130° |
| 2026-05-07 16:22 | 20.67397 | -105.25862 | 19 ft | 16 kts | 45° |
| 2026-05-07 16:22 | 20.67479 | -105.25770 | 19 ft | 18 kts | 51° |
| 2026-05-07 16:22 | 20.67570 | -105.25662 | 20 ft | 21 kts | 47° |
| 2026-05-07 16:23 | 20.67674 | -105.25544 | 21 ft | 23 kts | 46° |
| 2026-05-07 16:23 | 20.67789 | -105.25413 | 22 ft | 25 kts | 47° |
| 2026-05-07 16:23 | 20.67893 | -105.25296 | 22 ft | 16 kts | 46° |
| 2026-05-07 16:23 | 20.67880 | -105.25189 | 22 ft | 18 kts | 136° |
| 2026-05-07 16:24 | 20.67805 | -105.25103 | 22 ft | 16 kts | 108° |
| 2026-05-07 16:24 | 20.67813 | -105.25058 | 22 ft | 0 kts | 66° |